createdAt,value
2017-12-03T00:07:38.000Z,17.5
2017-12-03T00:17:38.000Z,16.2
2017-12-03T00:27:39.000Z,15.6
2017-12-03T00:37:38.000Z,15.3
2017-12-03T00:47:38.000Z,15
2017-12-03T00:57:38.000Z,14.9
2017-12-03T01:07:38.000Z,14.7
2017-12-03T01:17:38.000Z,14.6
2017-12-03T01:27:38.000Z,14.5
2017-12-03T01:37:38.000Z,14.7
2017-12-03T01:47:38.000Z,14.4
2017-12-03T01:57:38.000Z,14.3
2017-12-03T02:07:38.000Z,14.2
2017-12-03T02:17:38.000Z,14.2
2017-12-03T02:27:38.000Z,14.1
2017-12-03T02:37:38.000Z,14.1
2017-12-03T02:47:38.000Z,13.9
2017-12-03T02:57:38.000Z,13.9
2017-12-03T03:07:38.000Z,14
2017-12-03T03:17:38.000Z,14
2017-12-03T03:27:38.000Z,13.9
2017-12-03T03:37:39.000Z,14
2017-12-03T03:47:38.000Z,13.8
2017-12-03T03:57:38.000Z,13.9
2017-12-03T04:07:38.000Z,13.9
2017-12-03T04:17:38.000Z,13.7
2017-12-03T04:27:39.000Z,13.7
2017-12-03T04:37:39.000Z,13.7
2017-12-03T04:47:39.000Z,13.6
2017-12-03T04:57:39.000Z,13.6
2017-12-03T05:07:39.000Z,13.4
2017-12-03T05:17:39.000Z,13.7
2017-12-03T05:27:39.000Z,13.6
2017-12-03T05:37:39.000Z,13.6
2017-12-03T05:47:39.000Z,13.4
2017-12-03T05:57:39.000Z,13.6
2017-12-03T06:07:39.000Z,13.4
2017-12-03T06:17:39.000Z,13.4
2017-12-03T06:27:39.000Z,13.4
2017-12-03T06:37:39.000Z,13.3
2017-12-03T06:47:39.000Z,13.3
2017-12-03T06:57:39.000Z,13.2
2017-12-03T07:07:39.000Z,13.2
2017-12-03T07:17:39.000Z,13.2
2017-12-03T07:27:39.000Z,13.2
2017-12-03T07:37:39.000Z,13.2
2017-12-03T07:47:39.000Z,13.1
2017-12-03T07:57:39.000Z,13.1
2017-12-03T08:07:39.000Z,13.1
2017-12-03T08:17:39.000Z,13.1
2017-12-03T08:27:39.000Z,13.2
2017-12-03T08:37:39.000Z,13.1
2017-12-03T08:47:39.000Z,13.2
2017-12-03T08:57:39.000Z,13.1
2017-12-03T09:07:39.000Z,13.1
2017-12-03T09:17:39.000Z,13.4
2017-12-03T09:27:39.000Z,15.1
2017-12-03T09:37:39.000Z,16.3
2017-12-03T09:47:39.000Z,17
2017-12-03T09:57:39.000Z,17.7
2017-12-03T10:07:39.000Z,17.7
2017-12-03T10:17:39.000Z,17.7
2017-12-03T10:27:39.000Z,17.8
2017-12-03T10:37:39.000Z,17.9
2017-12-03T10:47:39.000Z,18.1
2017-12-03T10:57:39.000Z,18.1
2017-12-03T11:07:39.000Z,18.1
2017-12-03T11:17:39.000Z,18.2
2017-12-03T11:37:39.000Z,18.2
2017-12-03T11:47:40.000Z,18.3
2017-12-03T11:57:40.000Z,18.4
2017-12-03T12:07:40.000Z,18.3
2017-12-03T12:17:40.000Z,18.5
2017-12-03T12:27:40.000Z,18.5
2017-12-03T12:37:40.000Z,18.6
2017-12-03T12:47:40.000Z,18.6
2017-12-03T12:57:40.000Z,18.6
2017-12-03T13:07:40.000Z,18.7
2017-12-03T13:17:40.000Z,18.6
2017-12-03T13:27:40.000Z,18.7
2017-12-03T13:37:40.000Z,18.7
2017-12-03T13:47:40.000Z,18.7
2017-12-03T13:57:40.000Z,18.8
2017-12-03T14:07:40.000Z,18.8
2017-12-03T14:17:40.000Z,18.8
2017-12-03T14:27:40.000Z,18.8
2017-12-03T14:37:40.000Z,18.9
2017-12-03T14:47:40.000Z,18.9
2017-12-03T14:57:40.000Z,18.8
2017-12-03T15:07:40.000Z,18.9
2017-12-03T15:17:40.000Z,18.9
2017-12-03T15:27:40.000Z,18.9
2017-12-03T15:37:40.000Z,19
2017-12-03T15:47:40.000Z,19.1
2017-12-03T15:57:40.000Z,19
2017-12-03T16:07:40.000Z,19.1
2017-12-03T16:17:40.000Z,19.1
2017-12-03T16:27:40.000Z,19.1
2017-12-03T16:37:40.000Z,19.1
2017-12-03T16:47:40.000Z,19.1
2017-12-03T16:57:40.000Z,19.1
2017-12-03T17:07:40.000Z,19.1
2017-12-03T17:17:40.000Z,19.1
2017-12-03T17:27:40.000Z,19.2
2017-12-03T17:37:40.000Z,19.2
2017-12-03T17:47:40.000Z,19.3
2017-12-03T17:57:40.000Z,19.2
2017-12-03T18:07:40.000Z,19.2
2017-12-03T18:17:40.000Z,19.2
2017-12-03T18:27:40.000Z,19.3
2017-12-03T18:37:40.000Z,19.2
2017-12-03T18:47:41.000Z,19.2
2017-12-03T18:57:41.000Z,19.3
2017-12-03T19:07:41.000Z,19.4
2017-12-03T19:17:41.000Z,19.3
2017-12-03T19:27:41.000Z,19.3
2017-12-03T19:37:41.000Z,19.4
2017-12-03T19:47:41.000Z,19.4
2017-12-03T19:57:41.000Z,19.3
2017-12-03T20:07:41.000Z,19.3
2017-12-03T20:17:41.000Z,19.4
2017-12-03T20:27:41.000Z,19.5
2017-12-03T20:37:41.000Z,19.5
2017-12-03T20:47:41.000Z,19.5
2017-12-03T20:57:41.000Z,19.5
2017-12-03T21:07:41.000Z,19.5
2017-12-03T21:17:41.000Z,19.5
2017-12-03T21:27:41.000Z,19.6
2017-12-03T21:37:41.000Z,19.6
2017-12-03T21:47:41.000Z,19.6
2017-12-03T21:57:41.000Z,19.7
2017-12-03T22:07:41.000Z,18.3
2017-12-03T22:17:41.000Z,17.2
2017-12-03T22:27:41.000Z,16.7
2017-12-03T22:37:41.000Z,16.4
2017-12-03T22:47:41.000Z,16.3
2017-12-03T22:57:41.000Z,16.2
2017-12-03T23:07:41.000Z,16
2017-12-03T23:17:41.000Z,15.9
2017-12-03T23:27:41.000Z,15.8
2017-12-03T23:37:41.000Z,15.7
2017-12-03T23:47:41.000Z,15.6
2017-12-03T23:57:41.000Z,15.6
